sensor_id;sensor_type;location;lat;lon;timestamp;pressure;altitude;pressure_sealevel;temperature;humidity
37200;BME280;23096;50.892;16.746;2023-03-21T00:00:37;99303.02;;;9.64;72.26
37200;BME280;23096;50.892;16.746;2023-03-21T00:03:03;99300.81;;;9.63;72.29
37200;BME280;23096;50.892;16.746;2023-03-21T00:05:29;99297.80;;;9.60;72.24
37200;BME280;23096;50.892;16.746;2023-03-21T00:07:55;99296.30;;;9.59;72.29
37200;BME280;23096;50.892;16.746;2023-03-21T00:10:21;99291.38;;;9.57;72.31
37200;BME280;23096;50.892;16.746;2023-03-21T00:12:47;99288.50;;;9.55;72.38
37200;BME280;23096;50.892;16.746;2023-03-21T00:15:20;99287.86;;;9.54;72.37
37200;BME280;23096;50.892;16.746;2023-03-21T00:17:45;99287.55;;;9.53;72.18
37200;BME280;23096;50.892;16.746;2023-03-21T00:20:15;99286.75;;;9.50;72.22
37200;BME280;23096;50.892;16.746;2023-03-21T00:22:41;99285.42;;;9.49;72.25
37200;BME280;23096;50.892;16.746;2023-03-21T00:25:08;99281.81;;;9.49;72.23
37200;BME280;23096;50.892;16.746;2023-03-21T00:27:35;99279.90;;;9.50;72.33
37200;BME280;23096;50.892;16.746;2023-03-21T00:30:03;99279.39;;;9.50;72.30
37200;BME280;23096;50.892;16.746;2023-03-21T00:32:29;99280.61;;;9.49;72.23
37200;BME280;23096;50.892;16.746;2023-03-21T00:34:54;99276.66;;;9.50;72.39
37200;BME280;23096;50.892;16.746;2023-03-21T00:37:20;99274.21;;;9.51;72.36
37200;BME280;23096;50.892;16.746;2023-03-21T00:39:46;99274.38;;;9.52;72.28
37200;BME280;23096;50.892;16.746;2023-03-21T00:42:14;99276.03;;;9.54;72.25
37200;BME280;23096;50.892;16.746;2023-03-21T00:44:41;99277.39;;;9.54;72.20
37200;BME280;23096;50.892;16.746;2023-03-21T00:47:08;99274.00;;;9.53;72.26
37200;BME280;23096;50.892;16.746;2023-03-21T00:49:35;99276.44;;;9.52;72.19
37200;BME280;23096;50.892;16.746;2023-03-21T00:52:05;99275.92;;;9.52;72.18
37200;BME280;23096;50.892;16.746;2023-03-21T00:54:33;99273.19;;;9.51;72.25
37200;BME280;23096;50.892;16.746;2023-03-21T00:57:00;99275.73;;;9.52;72.25
37200;BME280;23096;50.892;16.746;2023-03-21T00:59:27;99271.64;;;9.52;72.36
37200;BME280;23096;50.892;16.746;2023-03-21T01:01:52;99271.79;;;9.52;72.30
37200;BME280;23096;50.892;16.746;2023-03-21T01:04:19;99269.56;;;9.52;72.40
37200;BME280;23096;50.892;16.746;2023-03-21T01:06:46;99273.88;;;9.51;72.31
37200;BME280;23096;50.892;16.746;2023-03-21T01:09:13;99274.25;;;9.50;72.28
37200;BME280;23096;50.892;16.746;2023-03-21T01:11:39;99272.18;;;9.50;72.26
37200;BME280;23096;50.892;16.746;2023-03-21T01:14:06;99268.79;;;9.49;72.14
37200;BME280;23096;50.892;16.746;2023-03-21T01:16:32;99272.44;;;9.47;72.21
37200;BME280;23096;50.892;16.746;2023-03-21T01:18:58;99272.27;;;9.47;72.21
37200;BME280;23096;50.892;16.746;2023-03-21T01:21:24;99271.08;;;9.47;72.23
37200;BME280;23096;50.892;16.746;2023-03-21T01:23:49;99276.56;;;9.47;72.19
37200;BME280;23096;50.892;16.746;2023-03-21T01:26:15;99277.75;;;9.47;72.20
37200;BME280;23096;50.892;16.746;2023-03-21T01:28:43;99277.05;;;9.48;72.16
37200;BME280;23096;50.892;16.746;2023-03-21T01:31:11;99279.50;;;9.46;72.18
37200;BME280;23096;50.892;16.746;2023-03-21T01:33:37;99277.38;;;9.42;72.12
37200;BME280;23096;50.892;16.746;2023-03-21T01:36:03;99275.37;;;9.40;72.06
37200;BME280;23096;50.892;16.746;2023-03-21T01:38:30;99277.89;;;9.35;72.11
37200;BME280;23096;50.892;16.746;2023-03-21T01:40:59;99279.68;;;9.32;72.16
37200;BME280;23096;50.892;16.746;2023-03-21T01:43:34;99276.11;;;9.32;72.19
37200;BME280;23096;50.892;16.746;2023-03-21T01:46:28;99272.55;;;9.30;72.10
37200;BME280;23096;50.892;16.746;2023-03-21T01:49:20;99270.23;;;9.27;72.09
37200;BME280;23096;50.892;16.746;2023-03-21T01:52:02;99273.73;;;9.24;72.15
37200;BME280;23096;50.892;16.746;2023-03-21T01:54:33;99271.54;;;9.23;72.22
37200;BME280;23096;50.892;16.746;2023-03-21T01:57:06;99265.70;;;9.24;72.23
37200;BME280;23096;50.892;16.746;2023-03-21T02:02:27;99275.21;;;9.26;72.17
37200;BME280;23096;50.892;16.746;2023-03-21T02:05:07;99270.88;;;9.21;72.14
37200;BME280;23096;50.892;16.746;2023-03-21T02:07:35;99271.29;;;9.19;72.15
37200;BME280;23096;50.892;16.746;2023-03-21T02:10:06;99271.17;;;9.17;72.13
37200;BME280;23096;50.892;16.746;2023-03-21T02:12:33;99268.48;;;9.14;72.07
37200;BME280;23096;50.892;16.746;2023-03-21T02:14:59;99263.45;;;9.11;72.15
37200;BME280;23096;50.892;16.746;2023-03-21T02:17:49;99270.36;;;9.09;72.06
37200;BME280;23096;50.892;16.746;2023-03-21T02:20:49;99270.60;;;9.06;72.07
37200;BME280;23096;50.892;16.746;2023-03-21T02:35:21;99270.52;;;9.02;72.22
37200;BME280;23096;50.892;16.746;2023-03-21T02:40:27;99271.27;;;9.06;72.10
37200;BME280;23096;50.892;16.746;2023-03-21T02:45:53;99275.81;;;9.03;72.14
37200;BME280;23096;50.892;16.746;2023-03-21T02:48:29;99278.27;;;9.00;72.14
37200;BME280;23096;50.892;16.746;2023-03-21T02:50:59;99278.63;;;8.99;72.15
37200;BME280;23096;50.892;16.746;2023-03-21T02:53:30;99280.91;;;8.97;72.14
37200;BME280;23096;50.892;16.746;2023-03-21T02:55:58;99281.33;;;8.94;72.16
37200;BME280;23096;50.892;16.746;2023-03-21T02:58:26;99281.70;;;8.93;72.26
37200;BME280;23096;50.892;16.746;2023-03-21T03:00:55;99282.42;;;8.92;72.24
37200;BME280;23096;50.892;16.746;2023-03-21T03:03:27;99284.83;;;8.91;72.23
37200;BME280;23096;50.892;16.746;2023-03-21T03:05:56;99282.93;;;8.91;72.26
37200;BME280;23096;50.892;16.746;2023-03-21T03:08:58;99281.58;;;8.91;72.20
37200;BME280;23096;50.892;16.746;2023-03-21T03:11:36;99283.15;;;8.90;72.27
37200;BME280;23096;50.892;16.746;2023-03-21T03:20:14;99286.16;;;8.86;72.29
37200;BME280;23096;50.892;16.746;2023-03-21T03:22:52;99285.48;;;8.85;72.32
37200;BME280;23096;50.892;16.746;2023-03-21T03:25:35;99288.27;;;8.84;72.35
37200;BME280;23096;50.892;16.746;2023-03-21T03:28:03;99284.36;;;8.82;72.32
37200;BME280;23096;50.892;16.746;2023-03-21T03:30:30;99281.48;;;8.80;72.27
37200;BME280;23096;50.892;16.746;2023-03-21T03:32:58;99285.13;;;8.78;72.38
37200;BME280;23096;50.892;16.746;2023-03-21T03:35:27;99284.13;;;8.77;72.40
37200;BME280;23096;50.892;16.746;2023-03-21T03:37:56;99278.31;;;8.77;72.41
37200;BME280;23096;50.892;16.746;2023-03-21T03:40:27;99282.44;;;8.77;72.36
37200;BME280;23096;50.892;16.746;2023-03-21T03:43:08;99282.48;;;8.75;72.42
37200;BME280;23096;50.892;16.746;2023-03-21T03:45:43;99283.86;;;8.75;72.46
37200;BME280;23096;50.892;16.746;2023-03-21T03:48:23;99283.87;;;8.74;72.50
37200;BME280;23096;50.892;16.746;2023-03-21T03:50:53;99281.99;;;8.74;72.48
37200;BME280;23096;50.892;16.746;2023-03-21T03:53:34;99280.45;;;8.74;72.54
37200;BME280;23096;50.892;16.746;2023-03-21T03:56:03;99283.15;;;8.76;72.58
37200;BME280;23096;50.892;16.746;2023-03-21T03:58:30;99281.75;;;8.76;72.57
37200;BME280;23096;50.892;16.746;2023-03-21T04:00:57;99287.10;;;8.75;72.53
37200;BME280;23096;50.892;16.746;2023-03-21T04:03:23;99283.86;;;8.74;72.61
37200;BME280;23096;50.892;16.746;2023-03-21T04:05:49;99284.88;;;8.76;72.75
37200;BME280;23096;50.892;16.746;2023-03-21T04:08:15;99287.10;;;8.76;72.64
37200;BME280;23096;50.892;16.746;2023-03-21T04:10:44;99288.47;;;8.75;72.70
37200;BME280;23096;50.892;16.746;2023-03-21T04:13:10;99289.88;;;8.74;72.66
37200;BME280;23096;50.892;16.746;2023-03-21T04:15:58;99293.67;;;8.73;72.73
37200;BME280;23096;50.892;16.746;2023-03-21T04:18:25;99294.73;;;8.72;72.71
37200;BME280;23096;50.892;16.746;2023-03-21T04:20:51;99294.55;;;8.72;72.69
37200;BME280;23096;50.892;16.746;2023-03-21T04:23:18;99293.20;;;8.71;72.82
37200;BME280;23096;50.892;16.746;2023-03-21T04:25:45;99296.46;;;8.71;72.79
37200;BME280;23096;50.892;16.746;2023-03-21T04:28:11;99295.79;;;8.70;72.72
37200;BME280;23096;50.892;16.746;2023-03-21T04:30:42;99294.27;;;8.69;72.73
37200;BME280;23096;50.892;16.746;2023-03-21T04:33:13;99292.39;;;8.69;72.86
37200;BME280;23096;50.892;16.746;2023-03-21T04:35:40;99291.91;;;8.67;72.79
37200;BME280;23096;50.892;16.746;2023-03-21T04:38:07;99294.16;;;8.66;72.85
37200;BME280;23096;50.892;16.746;2023-03-21T04:40:33;99293.97;;;8.67;72.87
37200;BME280;23096;50.892;16.746;2023-03-21T04:42:59;99295.90;;;8.65;72.87
37200;BME280;23096;50.892;16.746;2023-03-21T04:45:26;99298.51;;;8.63;72.85
37200;BME280;23096;50.892;16.746;2023-03-21T04:47:52;99300.08;;;8.62;72.79
37200;BME280;23096;50.892;16.746;2023-03-21T04:50:17;99301.48;;;8.60;72.89
37200;BME280;23096;50.892;16.746;2023-03-21T04:52:43;99302.17;;;8.60;72.91
37200;BME280;23096;50.892;16.746;2023-03-21T04:55:09;99302.15;;;8.61;72.93
37200;BME280;23096;50.892;16.746;2023-03-21T04:57:37;99301.64;;;8.61;72.96
37200;BME280;23096;50.892;16.746;2023-03-21T05:00:08;99299.94;;;8.61;72.99
37200;BME280;23096;50.892;16.746;2023-03-21T05:02:35;99296.02;;;8.60;73.02
37200;BME280;23096;50.892;16.746;2023-03-21T05:05:00;99300.63;;;8.61;73.13
37200;BME280;23096;50.892;16.746;2023-03-21T05:07:26;99301.27;;;8.62;73.10
37200;BME280;23096;50.892;16.746;2023-03-21T05:09:52;99300.94;;;8.61;72.96
37200;BME280;23096;50.892;16.746;2023-03-21T05:12:17;99299.99;;;8.59;73.12
37200;BME280;23096;50.892;16.746;2023-03-21T05:14:43;99301.58;;;8.56;73.12
37200;BME280;23096;50.892;16.746;2023-03-21T05:17:09;99303.15;;;8.55;73.13
37200;BME280;23096;50.892;16.746;2023-03-21T05:19:40;99305.76;;;8.53;73.15
37200;BME280;23096;50.892;16.746;2023-03-21T05:22:08;99303.61;;;8.50;73.07
37200;BME280;23096;50.892;16.746;2023-03-21T05:24:35;99306.11;;;8.45;73.13
37200;BME280;23096;50.892;16.746;2023-03-21T05:27:04;99310.45;;;8.42;73.09
37200;BME280;23096;50.892;16.746;2023-03-21T05:29:35;99319.77;;;8.37;73.04
37200;BME280;23096;50.892;16.746;2023-03-21T05:32:02;99319.49;;;8.34;73.04
37200;BME280;23096;50.892;16.746;2023-03-21T05:34:28;99320.80;;;8.30;73.06
37200;BME280;23096;50.892;16.746;2023-03-21T05:36:55;99321.21;;;8.26;73.05
37200;BME280;23096;50.892;16.746;2023-03-21T05:39:22;99324.52;;;8.23;73.09
37200;BME280;23096;50.892;16.746;2023-03-21T05:41:57;99325.04;;;8.23;73.19
37200;BME280;23096;50.892;16.746;2023-03-21T05:44:23;99327.14;;;8.20;73.12
37200;BME280;23096;50.892;16.746;2023-03-21T05:46:49;99327.73;;;8.17;73.15
37200;BME280;23096;50.892;16.746;2023-03-21T05:49:20;99331.52;;;8.15;73.18
37200;BME280;23096;50.892;16.746;2023-03-21T05:51:50;99330.17;;;8.15;73.17
37200;BME280;23096;50.892;16.746;2023-03-21T05:54:16;99332.77;;;8.13;73.17
37200;BME280;23096;50.892;16.746;2023-03-21T05:56:44;99332.13;;;8.11;73.24
37200;BME280;23096;50.892;16.746;2023-03-21T05:59:14;99335.41;;;8.09;73.27
37200;BME280;23096;50.892;16.746;2023-03-21T06:01:41;99339.37;;;8.08;73.22
37200;BME280;23096;50.892;16.746;2023-03-21T06:04:10;99342.34;;;8.05;73.26
37200;BME280;23096;50.892;16.746;2023-03-21T06:06:35;99340.84;;;8.03;73.19
37200;BME280;23096;50.892;16.746;2023-03-21T06:09:02;99340.68;;;8.02;73.18
37200;BME280;23096;50.892;16.746;2023-03-21T06:11:34;99335.35;;;8.04;73.25
37200;BME280;23096;50.892;16.746;2023-03-21T06:14:18;99339.55;;;8.08;73.27
37200;BME280;23096;50.892;16.746;2023-03-21T06:16:48;99337.27;;;8.10;73.21
37200;BME280;23096;50.892;16.746;2023-03-21T06:19:13;99340.17;;;8.10;73.30
37200;BME280;23096;50.892;16.746;2023-03-21T06:21:53;99336.44;;;8.10;73.26
37200;BME280;23096;50.892;16.746;2023-03-21T06:24:20;99337.46;;;8.10;73.29
37200;BME280;23096;50.892;16.746;2023-03-21T06:26:45;99341.88;;;8.11;73.29
37200;BME280;23096;50.892;16.746;2023-03-21T06:29:12;99338.13;;;8.10;73.17
37200;BME280;23096;50.892;16.746;2023-03-21T06:31:39;99337.45;;;8.10;73.20
37200;BME280;23096;50.892;16.746;2023-03-21T06:34:06;99338.81;;;8.11;73.23
37200;BME280;23096;50.892;16.746;2023-03-21T06:36:32;99338.65;;;8.11;73.25
37200;BME280;23096;50.892;16.746;2023-03-21T06:38:58;99340.37;;;8.10;73.25
37200;BME280;23096;50.892;16.746;2023-03-21T06:41:23;99342.41;;;8.11;73.38
37200;BME280;23096;50.892;16.746;2023-03-21T06:43:54;99343.92;;;8.12;73.32
37200;BME280;23096;50.892;16.746;2023-03-21T06:46:22;99346.45;;;8.13;73.31
37200;BME280;23096;50.892;16.746;2023-03-21T06:48:48;99346.94;;;8.15;73.35
37200;BME280;23096;50.892;16.746;2023-03-21T06:51:14;99349.48;;;8.17;73.28
37200;BME280;23096;50.892;16.746;2023-03-21T06:53:47;99350.86;;;8.16;73.27
37200;BME280;23096;50.892;16.746;2023-03-21T06:56:25;99353.10;;;8.15;73.28
37200;BME280;23096;50.892;16.746;2023-03-21T06:58:52;99353.29;;;8.14;73.19
37200;BME280;23096;50.892;16.746;2023-03-21T07:01:28;99355.89;;;8.13;73.29
37200;BME280;23096;50.892;16.746;2023-03-21T07:04:00;99359.43;;;8.14;73.36
37200;BME280;23096;50.892;16.746;2023-03-21T07:06:27;99360.27;;;8.15;73.30
37200;BME280;23096;50.892;16.746;2023-03-21T07:08:54;99364.91;;;8.15;73.30
37200;BME280;23096;50.892;16.746;2023-03-21T07:11:20;99365.73;;;8.16;73.40
37200;BME280;23096;50.892;16.746;2023-03-21T07:13:46;99366.02;;;8.18;73.38
37200;BME280;23096;50.892;16.746;2023-03-21T07:16:14;99366.66;;;8.20;73.40
37200;BME280;23096;50.892;16.746;2023-03-21T07:18:40;99366.65;;;8.21;73.35
37200;BME280;23096;50.892;16.746;2023-03-21T07:21:06;99368.69;;;8.22;73.27
37200;BME280;23096;50.892;16.746;2023-03-21T07:23:32;99368.83;;;8.23;73.43
37200;BME280;23096;50.892;16.746;2023-03-21T07:25:59;99372.38;;;8.26;73.48
37200;BME280;23096;50.892;16.746;2023-03-21T07:28:26;99375.77;;;8.27;73.43
37200;BME280;23096;50.892;16.746;2023-03-21T07:30:57;99372.98;;;8.30;73.53
37200;BME280;23096;50.892;16.746;2023-03-21T07:33:24;99375.19;;;8.32;73.43
37200;BME280;23096;50.892;16.746;2023-03-21T07:35:53;99376.74;;;8.30;73.48
37200;BME280;23096;50.892;16.746;2023-03-21T07:38:20;99375.17;;;8.32;73.49
37200;BME280;23096;50.892;16.746;2023-03-21T07:40:47;99376.03;;;8.32;73.52
37200;BME280;23096;50.892;16.746;2023-03-21T07:43:13;99377.01;;;8.35;73.50
37200;BME280;23096;50.892;16.746;2023-03-21T07:45:42;99374.73;;;8.37;73.51
37200;BME280;23096;50.892;16.746;2023-03-21T07:48:08;99374.54;;;8.38;73.49
37200;BME280;23096;50.892;16.746;2023-03-21T07:50:35;99377.07;;;8.40;73.54
37200;BME280;23096;50.892;16.746;2023-03-21T07:53:02;99378.05;;;8.43;73.51
37200;BME280;23096;50.892;16.746;2023-03-21T07:55:27;99376.70;;;8.43;73.45
37200;BME280;23096;50.892;16.746;2023-03-21T07:57:53;99376.68;;;8.43;73.61
37200;BME280;23096;50.892;16.746;2023-03-21T08:00:20;99379.02;;;8.46;73.58
37200;BME280;23096;50.892;16.746;2023-03-21T08:02:52;99380.96;;;8.43;73.59
37200;BME280;23096;50.892;16.746;2023-03-21T08:05:23;99380.98;;;8.43;73.56
37200;BME280;23096;50.892;16.746;2023-03-21T08:07:50;99385.45;;;8.40;73.47
37200;BME280;23096;50.892;16.746;2023-03-21T08:10:16;99385.13;;;8.39;73.54
37200;BME280;23096;50.892;16.746;2023-03-21T08:12:43;99384.50;;;8.37;73.41
37200;BME280;23096;50.892;16.746;2023-03-21T08:15:10;99384.83;;;8.37;73.60
37200;BME280;23096;50.892;16.746;2023-03-21T08:17:37;99388.08;;;8.37;73.40
37200;BME280;23096;50.892;16.746;2023-03-21T08:20:06;99391.54;;;8.35;73.45
37200;BME280;23096;50.892;16.746;2023-03-21T08:22:34;99390.48;;;8.36;73.53
37200;BME280;23096;50.892;16.746;2023-03-21T08:25:01;99392.30;;;8.40;73.50
37200;BME280;23096;50.892;16.746;2023-03-21T08:27:28;99395.24;;;8.38;73.36
37200;BME280;23096;50.892;16.746;2023-03-21T08:29:53;99398.67;;;8.37;73.47
37200;BME280;23096;50.892;16.746;2023-03-21T08:32:20;99399.34;;;8.38;73.46
37200;BME280;23096;50.892;16.746;2023-03-21T08:34:50;99403.09;;;8.39;73.44
37200;BME280;23096;50.892;16.746;2023-03-21T08:37:16;99401.05;;;8.39;73.36
37200;BME280;23096;50.892;16.746;2023-03-21T08:39:42;99400.49;;;8.41;73.47
37200;BME280;23096;50.892;16.746;2023-03-21T08:42:07;99404.02;;;8.46;73.46
37200;BME280;23096;50.892;16.746;2023-03-21T08:44:33;99399.65;;;8.50;73.45
37200;BME280;23096;50.892;16.746;2023-03-21T08:46:58;99400.61;;;8.53;73.50
37200;BME280;23096;50.892;16.746;2023-03-21T08:49:24;99402.09;;;8.56;73.45
37200;BME280;23096;50.892;16.746;2023-03-21T08:51:54;99407.84;;;8.59;73.41
37200;BME280;23096;50.892;16.746;2023-03-21T08:54:21;99408.15;;;8.61;73.26
37200;BME280;23096;50.892;16.746;2023-03-21T08:56:47;99404.35;;;8.62;73.24
37200;BME280;23096;50.892;16.746;2023-03-21T08:59:13;99402.42;;;8.64;73.35
37200;BME280;23096;50.892;16.746;2023-03-21T09:01:39;99405.33;;;8.65;73.30
37200;BME280;23096;50.892;16.746;2023-03-21T09:04:05;99403.92;;;8.67;73.26
37200;BME280;23096;50.892;16.746;2023-03-21T09:06:36;99406.60;;;8.70;73.20
37200;BME280;23096;50.892;16.746;2023-03-21T09:09:03;99408.43;;;8.72;73.22
37200;BME280;23096;50.892;16.746;2023-03-21T09:11:32;99408.88;;;8.75;73.24
37200;BME280;23096;50.892;16.746;2023-03-21T09:13:57;99413.03;;;8.81;73.26
37200;BME280;23096;50.892;16.746;2023-03-21T09:16:23;99414.40;;;8.89;73.24
37200;BME280;23096;50.892;16.746;2023-03-21T09:18:49;99414.59;;;8.95;73.24
37200;BME280;23096;50.892;16.746;2023-03-21T09:21:21;99415.20;;;8.99;73.13
37200;BME280;23096;50.892;16.746;2023-03-21T09:23:49;99418.48;;;8.98;72.95
37200;BME280;23096;50.892;16.746;2023-03-21T09:26:19;99419.36;;;8.96;72.88
37200;BME280;23096;50.892;16.746;2023-03-21T09:28:45;99417.27;;;8.98;72.93
37200;BME280;23096;50.892;16.746;2023-03-21T09:31:11;99418.40;;;9.01;72.95
37200;BME280;23096;50.892;16.746;2023-03-21T09:33:41;99420.96;;;9.02;72.82
37200;BME280;23096;50.892;16.746;2023-03-21T09:36:09;99420.74;;;9.04;72.75
37200;BME280;23096;50.892;16.746;2023-03-21T09:38:42;99420.85;;;9.07;72.77
37200;BME280;23096;50.892;16.746;2023-03-21T09:47:21;99419.48;;;9.14;72.72
37200;BME280;23096;50.892;16.746;2023-03-21T09:50:14;99421.55;;;9.21;72.66
37200;BME280;23096;50.892;16.746;2023-03-21T09:53:14;99418.92;;;9.23;72.59
37200;BME280;23096;50.892;16.746;2023-03-21T09:55:43;99418.06;;;9.23;72.53
37200;BME280;23096;50.892;16.746;2023-03-21T09:58:24;99413.66;;;9.28;72.45
37200;BME280;23096;50.892;16.746;2023-03-21T10:00:57;99412.51;;;9.34;72.35
37200;BME280;23096;50.892;16.746;2023-03-21T10:03:29;99414.53;;;9.35;72.34
37200;BME280;23096;50.892;16.746;2023-03-21T10:06:03;99414.30;;;9.37;72.39
37200;BME280;23096;50.892;16.746;2023-03-21T10:08:32;99411.43;;;9.43;72.38
37200;BME280;23096;50.892;16.746;2023-03-21T10:11:23;99408.83;;;9.45;72.27
37200;BME280;23096;50.892;16.746;2023-03-21T10:13:58;99407.92;;;9.46;72.15
37200;BME280;23096;50.892;16.746;2023-03-21T10:16:36;99409.75;;;9.49;72.12
37200;BME280;23096;50.892;16.746;2023-03-21T10:19:14;99405.58;;;9.58;72.11
37200;BME280;23096;50.892;16.746;2023-03-21T10:21:44;99406.63;;;9.64;72.05
37200;BME280;23096;50.892;16.746;2023-03-21T10:24:19;99406.86;;;9.68;71.92
37200;BME280;23096;50.892;16.746;2023-03-21T10:26:47;99404.63;;;9.74;71.96
37200;BME280;23096;50.892;16.746;2023-03-21T10:29:15;99402.63;;;9.79;71.83
37200;BME280;23096;50.892;16.746;2023-03-21T10:31:44;99406.46;;;9.84;71.77
37200;BME280;23096;50.892;16.746;2023-03-21T10:34:41;99405.98;;;9.89;71.77
37200;BME280;23096;50.892;16.746;2023-03-21T10:37:10;99406.62;;;9.90;71.70
37200;BME280;23096;50.892;16.746;2023-03-21T10:39:37;99408.94;;;9.93;71.60
37200;BME280;23096;50.892;16.746;2023-03-21T10:42:04;99409.92;;;9.95;71.56
37200;BME280;23096;50.892;16.746;2023-03-21T10:44:32;99413.41;;;9.99;71.63
37200;BME280;23096;50.892;16.746;2023-03-21T10:47:08;99411.66;;;10.01;71.31
37200;BME280;23096;50.892;16.746;2023-03-21T10:49:36;99410.61;;;10.02;71.30
37200;BME280;23096;50.892;16.746;2023-03-21T10:52:06;99411.20;;;10.05;71.47
37200;BME280;23096;50.892;16.746;2023-03-21T10:54:33;99409.19;;;10.10;71.35
37200;BME280;23096;50.892;16.746;2023-03-21T10:57:10;99409.59;;;10.20;71.36
37200;BME280;23096;50.892;16.746;2023-03-21T10:59:43;99406.15;;;10.21;71.15
37200;BME280;23096;50.892;16.746;2023-03-21T11:02:23;99407.23;;;10.25;71.22
37200;BME280;23096;50.892;16.746;2023-03-21T11:04:52;99405.79;;;10.34;71.08
37200;BME280;23096;50.892;16.746;2023-03-21T11:07:19;99399.59;;;10.35;70.85
37200;BME280;23096;50.892;16.746;2023-03-21T11:09:48;99400.77;;;10.36;70.77
37200;BME280;23096;50.892;16.746;2023-03-21T11:12:16;99399.36;;;10.38;70.91
37200;BME280;23096;50.892;16.746;2023-03-21T11:20:07;99393.42;;;10.59;70.82
37200;BME280;23096;50.892;16.746;2023-03-21T11:22:38;99390.23;;;10.62;70.50
37200;BME280;23096;50.892;16.746;2023-03-21T11:25:07;99385.08;;;10.68;70.43
37200;BME280;23096;50.892;16.746;2023-03-21T11:27:46;99381.73;;;10.76;70.33
37200;BME280;23096;50.892;16.746;2023-03-21T11:30:21;99377.68;;;10.80;70.23
37200;BME280;23096;50.892;16.746;2023-03-21T11:33:01;99377.19;;;10.79;70.21
37200;BME280;23096;50.892;16.746;2023-03-21T11:35:33;99378.70;;;10.74;69.97
37200;BME280;23096;50.892;16.746;2023-03-21T11:37:59;99377.02;;;10.62;69.80
37200;BME280;23096;50.892;16.746;2023-03-21T11:40:27;99377.73;;;10.55;69.72
37200;BME280;23096;50.892;16.746;2023-03-21T11:42:56;99371.14;;;10.57;69.69
37200;BME280;23096;50.892;16.746;2023-03-21T11:47:54;99368.02;;;10.64;69.62
37200;BME280;23096;50.892;16.746;2023-03-21T11:53:19;99362.62;;;10.66;69.55
37200;BME280;23096;50.892;16.746;2023-03-21T11:58:42;99363.54;;;10.64;69.29
37200;BME280;23096;50.892;16.746;2023-03-21T12:04:02;99358.11;;;10.67;69.16
37200;BME280;23096;50.892;16.746;2023-03-21T12:06:36;99359.97;;;10.63;69.04
37200;BME280;23096;50.892;16.746;2023-03-21T12:25:30;99342.85;;;10.61;68.71
37200;BME280;23096;50.892;16.746;2023-03-21T12:41:41;99332.19;;;10.72;68.28
37200;BME280;23096;50.892;16.746;2023-03-21T12:44:14;99328.90;;;10.73;68.27
37200;BME280;23096;50.892;16.746;2023-03-21T12:46:54;99327.63;;;10.70;68.07
37200;BME280;23096;50.892;16.746;2023-03-21T12:49:33;99330.79;;;10.68;67.93
37200;BME280;23096;50.892;16.746;2023-03-21T12:52:22;99323.45;;;10.72;67.99
37200;BME280;23096;50.892;16.746;2023-03-21T12:55:02;99319.19;;;10.76;67.93
37200;BME280;23096;50.892;16.746;2023-03-21T12:57:35;99316.14;;;10.75;67.80
37200;BME280;23096;50.892;16.746;2023-03-21T13:00:12;99313.40;;;10.69;67.71
37200;BME280;23096;50.892;16.746;2023-03-21T13:02:42;99311.02;;;10.62;67.72
37200;BME280;23096;50.892;16.746;2023-03-21T13:05:30;99309.64;;;10.57;67.60
37200;BME280;23096;50.892;16.746;2023-03-21T13:08:10;99312.40;;;10.57;67.57
37200;BME280;23096;50.892;16.746;2023-03-21T13:10:39;99309.77;;;10.58;67.53
37200;BME280;23096;50.892;16.746;2023-03-21T13:16:03;99303.11;;;10.63;67.51
37200;BME280;23096;50.892;16.746;2023-03-21T13:21:10;99297.54;;;10.71;67.46
37200;BME280;23096;50.892;16.746;2023-03-21T13:23:38;99293.22;;;10.71;67.39
37200;BME280;23096;50.892;16.746;2023-03-21T13:26:09;99292.79;;;10.74;67.47
37200;BME280;23096;50.892;16.746;2023-03-21T13:28:38;99291.84;;;10.77;67.45
37200;BME280;23096;50.892;16.746;2023-03-21T13:31:24;99288.66;;;10.80;67.51
37200;BME280;23096;50.892;16.746;2023-03-21T13:33:52;99285.34;;;10.81;67.36
37200;BME280;23096;50.892;16.746;2023-03-21T13:36:27;99287.48;;;10.79;67.40
37200;BME280;23096;50.892;16.746;2023-03-21T13:38:59;99287.58;;;10.76;67.38
37200;BME280;23096;50.892;16.746;2023-03-21T13:41:36;99285.41;;;10.73;67.31
37200;BME280;23096;50.892;16.746;2023-03-21T13:59:16;99284.92;;;10.62;67.38
37200;BME280;23096;50.892;16.746;2023-03-21T14:02:19;99282.05;;;10.60;67.48
37200;BME280;23096;50.892;16.746;2023-03-21T14:04:53;99280.70;;;10.60;67.45
37200;BME280;23096;50.892;16.746;2023-03-21T14:07:50;99278.20;;;10.58;67.35
37200;BME280;23096;50.892;16.746;2023-03-21T14:10:22;99277.92;;;10.55;67.52
37200;BME280;23096;50.892;16.746;2023-03-21T14:12:48;99275.86;;;10.55;67.63
37200;BME280;23096;50.892;16.746;2023-03-21T14:17:50;99268.61;;;10.57;67.54
37200;BME280;23096;50.892;16.746;2023-03-21T14:20:23;99265.59;;;10.54;67.60
37200;BME280;23096;50.892;16.746;2023-03-21T14:22:49;99261.70;;;10.52;67.57
37200;BME280;23096;50.892;16.746;2023-03-21T14:25:18;99261.49;;;10.53;67.72
37200;BME280;23096;50.892;16.746;2023-03-21T14:27:50;99264.02;;;10.55;67.65
37200;BME280;23096;50.892;16.746;2023-03-21T14:30:26;99262.08;;;10.57;67.58
37200;BME280;23096;50.892;16.746;2023-03-21T14:32:57;99259.59;;;10.60;67.78
37200;BME280;23096;50.892;16.746;2023-03-21T14:35:24;99255.00;;;10.63;67.88
37200;BME280;23096;50.892;16.746;2023-03-21T14:37:59;99250.95;;;10.66;67.90
37200;BME280;23096;50.892;16.746;2023-03-21T14:40:27;99245.86;;;10.69;67.90
37200;BME280;23096;50.892;16.746;2023-03-21T14:42:53;99244.78;;;10.71;67.90
37200;BME280;23096;50.892;16.746;2023-03-21T14:50:20;99228.54;;;10.79;67.98
37200;BME280;23096;50.892;16.746;2023-03-21T14:52:47;99224.27;;;10.84;68.18
37200;BME280;23096;50.892;16.746;2023-03-21T14:55:15;99221.23;;;10.87;68.15
37200;BME280;23096;50.892;16.746;2023-03-21T14:57:41;99219.67;;;10.88;68.03
37200;BME280;23096;50.892;16.746;2023-03-21T15:00:13;99215.80;;;10.90;68.18